Pagrindinis puslapis
METAR-TAF:

METAR-TAF

Oro uostai :

Vientianas, Laosas

platuma: 17-57N, ilguma: 102-34E, Aukštis: 171 m

Dabartinis oras

Ataskaita buvo paskelbta 37 minutes, ne 04:00 UTC
Vėjas 6 kt iš Rytų
Temperatūra 32°C
Drėgmė 49%
Slėgis 1014 hPa
Matomumas: 6000 m

METAR: VLVT 020400Z 09006KT 6000 NSC 32/20 Q1014 NOSIG

Laikas: 11:37 (04:37 UTC)

Prognozė

Ataskaita buvo paskelbta 5 valandos ir 37 minutes, ne 23:00 UTC
Prognozė galioja nuo 02 metu 00 UTC su 02 metu 24 UTC
Vėjas 2 kt iš Šiaurės
Matomumas: 5000 m
Mažai debesys ne aukštis 10000 ft
rūkana
Laikinai
nuo 02 metu 05 UTC su 02 metu 10 UTC
Matomumas: 8000 m
Mažai debesys ne aukštis 2000 ft

TAF: VLVT 012300Z 0200/0224 36002KT 5000 BR FEW100 TEMPO 0205/0210 8000 FEW020

Orai ataskaitas ir orų prognozės (METAR, TAF).

turimą stotys yra geltonos ir raudonos taškus žemėlapyje.

Perkelti pele per norėdami pamatyti stoties vardą.

Tada spustelėkite, norėdami matyti oro stebėjimo ir prognozės.

Norėdami pakeisti žemėlapį: spustelėkite ant žalios mygtukų su juodo kryžiaus žemyn,; žalią mygtuką su brūkšneliu, jei norite nutolinti; arba žalių rodyklių gretimoms žemėlapius.


METAR-TAF: